Time;durP1;ratioP1;P1;durP2;ratioP2;P2;SDS_P1;SDS_P2;PMS_P1;PMS_P2;Temp;Humidity;BMP_temperature;BMP_pressure;BME280_temperature;BME280_humidity;BME280_pressure;Samples;Min_cycle;Max_cycle;Signal;HPM_P1;HPM_P2
2023/10/25 00:02:09;;;;;;;64.80;33.67;;;6.60;99.90;;;;;;4997875;28;20038;-71
2023/10/25 00:04:36;;;;;;;92.68;34.15;;;6.60;99.90;;;;;;4998816;28;20061;-70
2023/10/25 00:07:03;;;;;;;77.32;34.63;;;6.50;99.90;;;;;;4998624;28;20045;-71
2023/10/25 00:09:29;;;;;;;95.20;39.25;;;6.50;99.90;;;;;;4998071;28;20053;-72
2023/10/25 00:11:56;;;;;;;76.05;35.60;;;6.60;99.90;;;;;;4991394;28;20080;-71
2023/10/25 00:14:23;;;;;;;85.80;37.58;;;6.70;99.90;;;;;;4991045;28;20037;-71
2023/10/25 00:16:51;;;;;;;80.78;35.72;;;6.70;99.90;;;;;;4988674;28;20053;-71
2023/10/25 00:19:17;;;;;;;79.65;33.72;;;6.80;99.90;;;;;;4999985;28;20522;-71
2023/10/25 00:21:44;;;;;;;75.70;33.30;;;6.80;99.90;;;;;;4993482;28;20088;-72
2023/10/25 00:24:11;;;;;;;74.95;33.90;;;6.90;99.90;;;;;;4992927;28;20096;-72
2023/10/25 00:26:38;;;;;;;63.05;31.45;;;6.90;99.90;;;;;;4987597;28;20527;-71
2023/10/25 00:29:06;;;;;;;73.47;32.20;;;6.80;99.90;;;;;;5000650;28;20052;-72
2023/10/25 00:31:32;;;;;;;64.32;31.25;;;6.80;99.90;;;;;;4992124;28;20050;-71
2023/10/25 00:34:00;;;;;;;69.22;32.85;;;6.70;99.90;;;;;;4993146;28;20049;-72
2023/10/25 00:36:28;;;;;;;69.25;33.53;;;6.70;99.90;;;;;;4998692;28;20140;-72
2023/10/25 00:38:54;;;;;;;64.82;32.33;;;6.70;99.90;;;;;;4991332;28;20053;-72
2023/10/25 00:41:23;;;;;;;55.97;31.15;;;6.70;99.90;;;;;;4998049;28;20735;-72
2023/10/25 00:43:49;;;;;;;74.05;34.35;;;6.80;99.90;;;;;;4976928;28;22155;-72
2023/10/25 00:46:22;;;;;;;61.60;33.65;;;6.80;99.90;;;;;;4991938;28;20792;-72
2023/10/25 00:48:52;;;;;;;74.57;34.58;;;6.80;99.90;;;;;;5004261;28;20074;-71
2023/10/25 00:51:22;;;;;;;86.55;34.70;;;6.70;99.90;;;;;;4994868;28;20665;-71
2023/10/25 00:53:56;;;;;;;74.20;34.65;;;6.60;99.90;;;;;;4990124;28;20052;-70
2023/10/25 00:56:25;;;;;;;60.42;30.92;;;6.40;99.90;;;;;;4991398;28;20054;-72
2023/10/25 00:58:55;;;;;;;62.50;31.25;;;6.50;99.90;;;;;;4991328;28;20220;-72
2023/10/25 01:01:23;;;;;;;59.38;31.63;;;6.60;99.90;;;;;;4992283;28;20049;-72
2023/10/25 01:03:51;;;;;;;75.65;33.28;;;6.60;99.90;;;;;;4986011;28;20046;-72
2023/10/25 01:06:18;;;;;;;71.72;34.03;;;6.70;99.90;;;;;;4993951;28;20058;-71
2023/10/25 01:08:45;;;;;;;73.28;34.15;;;6.70;99.90;;;;;;4992603;28;20060;-72
2023/10/25 01:11:12;;;;;;;73.40;33.65;;;6.70;99.90;;;;;;4986820;28;20122;-72
2023/10/25 01:13:39;;;;;;;71.13;35.80;;;6.70;99.90;;;;;;4996125;28;20069;-72
2023/10/25 01:16:06;;;;;;;64.47;34.13;;;6.70;99.90;;;;;;5027850;28;20550;-72
2023/10/25 01:18:34;;;;;;;63.38;33.72;;;6.70;99.90;;;;;;4999722;28;20042;-71
2023/10/25 01:21:01;;;;;;;59.58;33.85;;;6.70;99.90;;;;;;4990996;28;20081;-72
2023/10/25 01:23:28;;;;;;;66.43;32.45;;;6.70;99.90;;;;;;5009643;28;20380;-71
2023/10/25 01:25:54;;;;;;;59.72;33.90;;;6.70;99.90;;;;;;5020331;28;20046;-71
2023/10/25 01:28:23;;;;;;;60.22;33.80;;;6.70;99.90;;;;;;5014168;28;20054;-71
2023/10/25 01:30:50;;;;;;;67.55;34.58;;;6.70;99.90;;;;;;4987419;28;20038;-71
2023/10/25 01:33:16;;;;;;;64.35;33.65;;;6.80;99.90;;;;;;4993739;28;20147;-71
2023/10/25 01:35:43;;;;;;;69.72;34.83;;;6.80;99.90;;;;;;4995415;28;20070;-70
2023/10/25 01:38:10;;;;;;;61.28;33.67;;;6.80;99.90;;;;;;4988754;28;20053;-72
2023/10/25 01:40:37;;;;;;;66.07;33.28;;;6.90;99.90;;;;;;4997066;28;20536;-72
2023/10/25 01:43:04;;;;;;;59.17;32.53;;;6.90;99.90;;;;;;4989085;28;20056;-71
2023/10/25 01:45:31;;;;;;;64.82;34.45;;;6.80;99.90;;;;;;4989918;28;20050;-72
2023/10/25 01:47:58;;;;;;;70.30;32.78;;;6.80;99.90;;;;;;4989423;28;20053;-70
2023/10/25 01:50:25;;;;;;;58.60;32.90;;;6.80;99.90;;;;;;4995691;28;20050;-72
2023/10/25 01:52:52;;;;;;;66.28;35.45;;;6.90;99.90;;;;;;4989529;28;20156;-71
2023/10/25 01:55:19;;;;;;;54.85;33.25;;;6.80;99.90;;;;;;4995524;28;20041;-72
2023/10/25 01:57:46;;;;;;;61.15;34.20;;;6.80;99.90;;;;;;4989728;28;20041;-72
2023/10/25 02:00:13;;;;;;;67.32;35.78;;;6.80;99.90;;;;;;5023002;28;20096;-71
2023/10/25 02:02:40;;;;;;;72.88;35.72;;;6.70;99.90;;;;;;4988063;28;20646;-71
2023/10/25 02:05:08;;;;;;;62.15;32.90;;;6.70;99.90;;;;;;4992244;28;20116;-72
2023/10/25 02:07:35;;;;;;;78.15;35.78;;;6.70;99.90;;;;;;4997102;28;20412;-72
2023/10/25 02:10:03;;;;;;;70.95;35.05;;;6.80;99.90;;;;;;4996099;28;20129;-71
2023/10/25 02:12:30;;;;;;;76.82;34.95;;;6.70;99.90;;;;;;4998991;28;20737;-72
2023/10/25 02:14:57;;;;;;;65.78;34.75;;;6.80;99.90;;;;;;4996713;28;20038;-71
2023/10/25 02:17:24;;;;;;;76.03;36.40;;;6.70;99.90;;;;;;4994502;28;20049;-72
2023/10/25 02:19:51;;;;;;;79.55;36.65;;;6.70;99.90;;;;;;4989618;28;20048;-71
2023/10/25 02:22:17;;;;;;;70.90;34.50;;;6.80;99.90;;;;;;5001010;28;20128;-72
2023/10/25 02:24:44;;;;;;;82.80;36.22;;;6.90;99.90;;;;;;4992596;28;20053;-71
2023/10/25 02:27:11;;;;;;;71.50;34.33;;;6.90;99.90;;;;;;4998245;28;20408;-70
2023/10/25 02:29:38;;;;;;;83.32;36.70;;;6.90;99.90;;;;;;5000006;28;20050;-72
2023/10/25 02:32:07;;;;;;;69.35;36.05;;;6.90;99.90;;;;;;4992892;28;20056;-71
2023/10/25 02:34:36;;;;;;;75.90;37.45;;;6.80;99.90;;;;;;5000675;28;20099;-72
2023/10/25 02:37:03;;;;;;;78.88;38.35;;;6.80;99.90;;;;;;4995962;28;20053;-72
2023/10/25 02:39:30;;;;;;;74.07;36.75;;;6.90;99.90;;;;;;5007363;28;20053;-71
2023/10/25 02:41:57;;;;;;;61.85;34.63;;;6.90;99.90;;;;;;4991900;28;20100;-72
2023/10/25 02:44:24;;;;;;;78.72;37.85;;;6.90;99.90;;;;;;4993845;28;20046;-72
2023/10/25 02:46:50;;;;;;;69.72;35.83;;;6.90;99.90;;;;;;4992840;28;20160;-71
2023/10/25 02:49:18;;;;;;;74.05;36.08;;;6.90;99.90;;;;;;5001451;28;20581;-71
2023/10/25 02:51:45;;;;;;;62.28;35.50;;;6.90;99.90;;;;;;4995355;28;20128;-72
2023/10/25 02:54:11;;;;;;;73.70;36.22;;;6.90;99.90;;;;;;5003100;28;20691;-71
2023/10/25 02:56:38;;;;;;;84.50;39.08;;;6.90;99.90;;;;;;4994063;28;20678;-72
2023/10/25 02:59:05;;;;;;;72.47;36.50;;;6.90;99.90;;;;;;4991801;28;21045;-72
2023/10/25 03:01:32;;;;;;;76.00;37.17;;;6.90;99.90;;;;;;5002617;28;20060;-72
2023/10/25 03:03:59;;;;;;;75.05;37.00;;;6.90;99.90;;;;;;4990763;28;20060;-72
2023/10/25 03:06:26;;;;;;;73.38;33.92;;;6.90;99.90;;;;;;4990547;28;20141;-71
2023/10/25 03:08:53;;;;;;;78.50;34.38;;;6.80;99.90;;;;;;4988426;28;20065;-72
2023/10/25 03:11:20;;;;;;;71.95;33.92;;;6.50;99.90;;;;;;4991652;28;20659;-71
2023/10/25 03:13:48;;;;;;;71.05;34.65;;;6.40;99.90;;;;;;4984409;28;20050;-71
2023/10/25 03:16:15;;;;;;;71.65;34.78;;;6.40;99.90;;;;;;4998008;28;20045;-71
2023/10/25 03:18:42;;;;;;;79.00;34.38;;;6.30;99.90;;;;;;4991552;28;20050;-71
2023/10/25 03:21:09;;;;;;;75.72;34.42;;;6.30;99.90;;;;;;4991179;28;20038;-71
2023/10/25 03:23:36;;;;;;;80.95;34.88;;;6.20;99.90;;;;;;4994449;28;20104;-72
2023/10/25 03:26:07;;;;;;;67.00;33.08;;;6.10;99.90;;;;;;4988256;28;20046;-73
2023/10/25 03:28:35;;;;;;;72.03;33.65;;;5.90;99.90;;;;;;4993389;28;20133;-73
2023/10/25 03:31:07;;;;;;;73.13;33.08;;;6.00;99.90;;;;;;4986281;28;20100;-73
2023/10/25 03:33:35;;;;;;;75.28;34.17;;;6.00;99.90;;;;;;4991206;28;20156;-73
2023/10/25 03:36:02;;;;;;;86.50;35.47;;;6.20;99.90;;;;;;4988794;28;20407;-73
2023/10/25 03:38:29;;;;;;;73.55;36.38;;;6.20;99.90;;;;;;4993521;28;20081;-73
2023/10/25 03:41:04;;;;;;;75.55;35.90;;;6.20;99.90;;;;;;4988882;28;20121;-73
2023/10/25 03:43:31;;;;;;;84.82;38.72;;;6.30;99.90;;;;;;4998605;28;20064;-71
2023/10/25 03:46:03;;;;;;;86.65;38.80;;;6.30;99.90;;;;;;4994863;28;20448;-72
2023/10/25 03:48:31;;;;;;;94.43;38.95;;;6.30;99.90;;;;;;4998552;28;20744;-71
2023/10/25 03:50:58;;;;;;;83.68;37.33;;;6.30;99.90;;;;;;4990515;28;20088;-74
2023/10/25 03:53:25;;;;;;;84.63;36.40;;;6.20;99.90;;;;;;4983086;28;20676;-71
2023/10/25 03:55:55;;;;;;;87.75;37.95;;;6.20;99.90;;;;;;4998807;28;20068;-72
2023/10/25 03:58:23;;;;;;;107.78;41.22;;;6.30;99.90;;;;;;4997042;28;20034;-72
2023/10/25 04:01:04;;;;;;;80.22;36.97;;;6.20;99.90;;;;;;4992635;28;20049;-70
2023/10/25 04:03:36;;;;;;;73.22;35.47;;;6.20;99.90;;;;;;4997735;28;20049;-72
2023/10/25 04:06:04;;;;;;;72.78;35.08;;;6.20;99.90;;;;;;4991053;28;20053;-71
2023/10/25 04:08:32;;;;;;;73.82;35.35;;;6.10;99.90;;;;;;4999529;28;20046;-71
2023/10/25 04:10:59;;;;;;;86.68;35.50;;;6.10;99.90;;;;;;4988255;28;20515;-71
2023/10/25 04:13:27;;;;;;;63.88;31.73;;;5.80;99.90;;;;;;4991873;28;20053;-71
2023/10/25 04:15:55;;;;;;;71.47;33.83;;;5.90;99.90;;;;;;4990928;28;20052;-72
2023/10/25 04:18:23;;;;;;;72.07;33.10;;;6.00;99.90;;;;;;4993705;28;20055;-71
2023/10/25 04:20:51;;;;;;;67.10;30.98;;;5.90;99.90;;;;;;5027309;28;20063;-71
2023/10/25 04:23:19;;;;;;;70.43;32.90;;;5.90;99.90;;;;;;4993016;28;20044;-74
2023/10/25 04:25:46;;;;;;;69.25;32.13;;;5.80;99.90;;;;;;4989657;28;20034;-71
2023/10/25 04:28:14;;;;;;;76.70;32.42;;;5.80;99.90;;;;;;4997755;28;20614;-72
2023/10/25 04:30:41;;;;;;;74.70;32.22;;;5.80;99.90;;;;;;4992607;28;20049;-72
2023/10/25 04:33:08;;;;;;;87.05;33.92;;;5.70;99.90;;;;;;4992407;28;20045;-72
2023/10/25 04:35:35;;;;;;;90.38;35.72;;;5.80;99.90;;;;;;4998065;28;20041;-72
2023/10/25 04:38:02;;;;;;;95.82;36.90;;;5.50;99.90;;;;;;4992989;28;20472;-72
2023/10/25 04:40:30;;;;;;;81.28;33.97;;;5.40;99.90;;;;;;4998044;28;20069;-72
2023/10/25 04:42:57;;;;;;;70.25;33.85;;;5.30;99.90;;;;;;4994110;28;20042;-72
2023/10/25 04:45:24;;;;;;;79.57;34.28;;;5.20;99.90;;;;;;4991478;28;20038;-71
2023/10/25 04:47:51;;;;;;;79.05;34.20;;;5.10;99.90;;;;;;4996127;28;20050;-72
2023/10/25 04:50:20;;;;;;;103.03;35.63;;;5.30;99.90;;;;;;4987970;28;20077;-72
2023/10/25 04:52:48;;;;;;;91.82;34.40;;;5.40;99.90;;;;;;4996274;28;20041;-72
2023/10/25 04:55:15;;;;;;;84.45;34.15;;;5.30;99.90;;;;;;4995940;28;20054;-71
2023/10/25 04:57:43;;;;;;;107.70;35.67;;;5.30;99.90;;;;;;4995534;28;20054;-72
2023/10/25 05:00:10;;;;;;;86.07;34.85;;;5.40;99.90;;;;;;4994206;28;20049;-71
2023/10/25 05:02:40;;;;;;;84.07;34.35;;;5.40;99.90;;;;;;4998284;28;20054;-72
2023/10/25 05:05:08;;;;;;;72.63;33.70;;;5.30;99.90;;;;;;4985796;28;20124;-72
2023/10/25 05:07:39;;;;;;;75.20;32.92;;;5.20;99.90;;;;;;4994356;28;20049;-72
2023/10/25 05:10:10;;;;;;;83.05;33.42;;;5.00;99.90;;;;;;4991746;28;20156;-72
2023/10/25 05:12:41;;;;;;;92.38;35.85;;;4.90;99.90;;;;;;4993850;28;20057;-72
2023/10/25 05:15:09;;;;;;;84.28;35.60;;;4.80;99.90;;;;;;4992505;28;20049;-72
2023/10/25 05:17:38;;;;;;;80.63;35.33;;;4.70;99.90;;;;;;4995986;28;20046;-72
2023/10/25 05:20:06;;;;;;;72.60;34.28;;;4.70;99.90;;;;;;4987255;28;20057;-72
2023/10/25 05:22:38;;;;;;;79.85;34.58;;;4.70;99.90;;;;;;4993932;28;20108;-72
2023/10/25 05:25:07;;;;;;;71.32;33.20;;;4.70;99.90;;;;;;4989957;28;20046;-72
2023/10/25 05:27:35;;;;;;;71.45;30.15;;;4.70;99.90;;;;;;4998063;28;20045;-73
2023/10/25 05:30:12;;;;;;;69.60;32.15;;;4.70;99.90;;;;;;4993042;28;20038;-72
2023/10/25 05:32:43;;;;;;;70.00;32.30;;;4.60;99.90;;;;;;4996251;28;20046;-72
2023/10/25 05:35:11;;;;;;;80.32;32.72;;;4.70;99.90;;;;;;4993602;28;20045;-73
2023/10/25 05:37:38;;;;;;;73.50;31.83;;;4.70;99.90;;;;;;5001619;28;20053;-72
2023/10/25 05:40:06;;;;;;;125.90;47.28;;;4.50;99.90;;;;;;4995175;28;20046;-72
2023/10/25 05:42:47;;;;;;;72.97;37.97;;;4.40;99.90;;;;;;5013207;28;20030;-71
2023/10/25 05:45:14;;;;;;;107.38;48.92;;;4.30;99.90;;;;;;5015266;28;20052;-72
2023/10/25 05:47:42;;;;;;;99.68;39.58;;;4.30;99.90;;;;;;5012372;28;20108;-73
2023/10/25 05:50:10;;;;;;;101.90;45.75;;;4.30;99.90;;;;;;4997633;28;20041;-72
2023/10/25 05:52:39;;;;;;;92.97;37.75;;;4.60;99.90;;;;;;4997653;28;20053;-72
2023/10/25 05:55:06;;;;;;;85.20;33.00;;;4.60;99.90;;;;;;4997189;28;20046;-73
2023/10/25 05:57:33;;;;;;;88.53;34.05;;;4.60;99.90;;;;;;5003439;28;20041;-72
2023/10/25 06:00:01;;;;;;;99.13;34.08;;;4.80;99.90;;;;;;4994277;28;20329;-72
2023/10/25 06:02:33;;;;;;;116.85;35.53;;;4.90;99.90;;;;;;4994526;28;20034;-72
2023/10/25 06:05:01;;;;;;;141.52;37.58;;;5.00;99.90;;;;;;4995248;28;20941;-72
2023/10/25 06:07:33;;;;;;;173.07;41.58;;;5.20;99.90;;;;;;4993672;28;20042;-72
2023/10/25 06:10:01;;;;;;;167.40;37.28;;;5.30;99.90;;;;;;4996636;28;20096;-71
2023/10/25 06:12:29;;;;;;;146.23;33.60;;;5.50;99.90;;;;;;4993789;28;20041;-72
2023/10/25 06:14:55;;;;;;;189.25;38.20;;;5.60;99.90;;;;;;4995868;28;20052;-72
2023/10/25 06:17:22;;;;;;;132.95;34.22;;;5.70;99.90;;;;;;4993828;28;20111;-73
2023/10/25 06:19:52;;;;;;;158.13;36.63;;;5.90;99.90;;;;;;4990667;28;20045;-72
2023/10/25 06:22:20;;;;;;;179.18;37.22;;;5.90;99.90;;;;;;4986880;28;20037;-72
2023/10/25 06:24:47;;;;;;;157.48;35.85;;;6.10;99.90;;;;;;4995467;28;20045;-71
2023/10/25 06:27:14;;;;;;;132.35;33.75;;;6.20;99.90;;;;;;4970494;28;20092;-71
2023/10/25 06:29:41;;;;;;;142.02;36.08;;;6.30;99.90;;;;;;4991311;28;20057;-70
2023/10/25 06:32:08;;;;;;;118.65;31.05;;;6.40;99.90;;;;;;4986875;28;20047;-70
2023/10/25 06:34:35;;;;;;;95.72;28.30;;;6.40;99.90;;;;;;4994449;28;20140;-70
2023/10/25 06:37:02;;;;;;;132.75;35.95;;;6.50;99.90;;;;;;4992775;28;20695;-70
2023/10/25 06:39:29;;;;;;;110.35;32.10;;;6.60;99.90;;;;;;4988720;28;20056;-70
2023/10/25 06:41:57;;;;;;;112.38;34.38;;;6.80;99.90;;;;;;4995800;28;20045;-70
2023/10/25 06:44:25;;;;;;;102.90;32.47;;;6.80;99.90;;;;;;4991827;28;20792;-70
2023/10/25 06:46:52;;;;;;;110.15;33.53;;;6.90;99.90;;;;;;4995301;28;20034;-73
2023/10/25 06:49:20;;;;;;;105.82;34.30;;;7.00;99.90;;;;;;4989915;28;20038;-73
2023/10/25 06:51:47;;;;;;;90.47;31.77;;;7.10;99.90;;;;;;4992663;28;20112;-74
2023/10/25 06:54:14;;;;;;;94.00;31.13;;;7.10;99.90;;;;;;4990504;28;20069;-72
2023/10/25 06:56:41;;;;;;;88.38;31.92;;;7.20;99.90;;;;;;4990343;28;20061;-73
2023/10/25 06:59:09;;;;;;;86.95;33.55;;;7.30;99.90;;;;;;4991696;28;20037;-72
2023/10/25 07:01:41;;;;;;;82.47;31.92;;;7.30;99.90;;;;;;4992943;28;20045;-71
2023/10/25 07:04:14;;;;;;;76.40;31.33;;;7.30;99.90;;;;;;4994352;28;20119;-70
2023/10/25 07:06:45;;;;;;;82.13;32.88;;;7.50;99.90;;;;;;4992909;28;20037;-73
2023/10/25 07:09:14;;;;;;;90.45;33.65;;;7.50;99.90;;;;;;4983030;28;20129;-72
2023/10/25 07:11:41;;;;;;;75.88;32.70;;;7.50;99.90;;;;;;4988631;28;20038;-72
2023/10/25 07:14:07;;;;;;;83.47;32.70;;;7.70;99.90;;;;;;4989052;28;20050;-72
2023/10/25 07:16:35;;;;;;;83.82;31.27;;;7.70;99.90;;;;;;4997165;28;20033;-71
2023/10/25 07:19:02;;;;;;;78.68;32.65;;;7.70;99.90;;;;;;4994112;28;20050;-71
2023/10/25 07:21:30;;;;;;;74.18;31.80;;;7.80;99.90;;;;;;4986204;28;20095;-72
2023/10/25 07:23:56;;;;;;;72.70;31.45;;;7.90;99.90;;;;;;4994953;28;20038;-71
2023/10/25 07:26:23;;;;;;;75.80;32.30;;;7.80;99.90;;;;;;4990638;28;20042;-71
2023/10/25 07:28:50;;;;;;;70.18;32.83;;;7.90;99.90;;;;;;4996093;28;20046;-70
2023/10/25 07:31:17;;;;;;;69.18;31.55;;;7.90;99.90;;;;;;4986271;28;20042;-70
2023/10/25 07:33:45;;;;;;;66.15;30.85;;;7.90;99.90;;;;;;4988980;28;20038;-70
2023/10/25 07:36:12;;;;;;;64.60;26.85;;;7.90;99.90;;;;;;4986796;28;20038;-71
2023/10/25 07:38:39;;;;;;;65.47;28.15;;;7.90;99.90;;;;;;4995603;28;20467;-70
2023/10/25 07:41:06;;;;;;;64.82;27.95;;;7.90;99.90;;;;;;4991886;28;20041;-71
2023/10/25 07:43:33;;;;;;;51.55;27.05;;;7.90;99.90;;;;;;4989935;28;20057;-71
2023/10/25 07:46:00;;;;;;;54.72;26.60;;;7.90;99.90;;;;;;4992169;28;20792;-70
2023/10/25 07:48:27;;;;;;;60.17;28.70;;;8.00;99.90;;;;;;4988845;28;20083;-70
2023/10/25 07:50:54;;;;;;;60.25;28.38;;;8.00;99.90;;;;;;4990632;28;20041;-71
2023/10/25 07:53:22;;;;;;;60.97;30.30;;;8.00;99.90;;;;;;4996957;28;20054;-70
2023/10/25 07:55:50;;;;;;;50.10;26.45;;;8.10;99.90;;;;;;4998569;28;20052;-70
2023/10/25 07:58:22;;;;;;;48.60;26.88;;;8.20;99.90;;;;;;4994399;28;20638;-70
2023/10/25 08:00:54;;;;;;;46.42;26.40;;;8.30;99.90;;;;;;4983101;28;20523;-71
2023/10/25 08:03:21;;;;;;;46.65;28.73;;;8.30;99.90;;;;;;4992359;28;20068;-70
2023/10/25 08:05:48;;;;;;;51.35;30.42;;;8.30;99.90;;;;;;4991866;28;20034;-70
2023/10/25 08:08:16;;;;;;;51.90;30.05;;;8.30;99.90;;;;;;4988077;28;20111;-69
2023/10/25 08:10:43;;;;;;;44.30;28.73;;;8.50;99.90;;;;;;4994149;28;20058;-70
2023/10/25 08:13:10;;;;;;;45.20;30.02;;;8.70;99.90;;;;;;4991135;28;20049;-69
2023/10/25 08:15:36;;;;;;;41.17;28.33;;;8.70;99.90;;;;;;4985447;28;20053;-70
2023/10/25 08:18:04;;;;;;;50.90;29.50;;;8.70;99.90;;;;;;4994530;28;20073;-70
2023/10/25 08:20:50;;;;;;;48.22;29.25;;;8.70;99.90;;;;;;4981215;28;21415;-75
2023/10/25 08:23:18;;;;;;;53.90;32.10;;;8.80;99.90;;;;;;4987770;28;20742;-73
2023/10/25 08:25:45;;;;;;;44.78;27.10;;;8.90;99.90;;;;;;5003840;28;20054;-73
2023/10/25 08:28:12;;;;;;;43.22;25.20;;;8.90;99.90;;;;;;4996314;28;20596;-74
2023/10/25 08:30:39;;;;;;;50.45;27.70;;;8.80;99.90;;;;;;4990307;28;20065;-74
2023/10/25 08:33:06;;;;;;;48.08;29.05;;;8.70;99.90;;;;;;4998466;28;20137;-73
2023/10/25 08:35:33;;;;;;;46.47;25.35;;;8.70;99.90;;;;;;4990117;28;20550;-73
2023/10/25 08:38:00;;;;;;;41.05;26.25;;;8.70;99.90;;;;;;4995578;28;20042;-73
2023/10/25 08:40:26;;;;;;;39.83;26.20;;;8.80;99.90;;;;;;4996044;28;20427;-73
2023/10/25 08:42:58;;;;;;;42.08;25.30;;;8.90;99.90;;;;;;4996582;28;20046;-73
2023/10/25 08:45:26;;;;;;;42.85;28.52;;;8.90;99.90;;;;;;4999913;28;20045;-77
2023/10/25 08:47:53;;;;;;;47.13;28.73;;;9.00;99.90;;;;;;5002022;28;20038;-76
2023/10/25 08:50:21;;;;;;;42.65;23.73;;;9.20;99.90;;;;;;4991423;28;20283;-73
2023/10/25 08:52:49;;;;;;;35.88;21.77;;;9.20;99.90;;;;;;5001139;28;20040;-74
2023/10/25 08:55:19;;;;;;;26.45;19.67;;;9.20;99.90;;;;;;4994169;28;20074;-74
2023/10/25 08:57:53;;;;;;;31.63;19.13;;;9.30;99.90;;;;;;4997190;28;20693;-74
2023/10/25 09:00:20;;;;;;;32.55;18.67;;;9.40;99.90;;;;;;4982926;28;20128;-73
2023/10/25 09:02:59;;;;;;;37.83;19.30;;;9.30;99.90;;;;;;5001076;28;20439;-73
2023/10/25 09:05:43;;;;;;;32.28;20.90;;;9.40;99.90;;;;;;4996769;28;20088;-74
2023/10/25 09:08:17;;;;;;;33.35;20.42;;;9.50;99.90;;;;;;4994610;28;20057;-75
2023/10/25 09:10:43;;;;;;;33.25;19.67;;;9.80;99.90;;;;;;4995020;28;20049;-75
2023/10/25 09:13:13;;;;;;;30.77;20.55;;;9.70;99.90;;;;;;4997774;28;20053;-75
2023/10/25 09:15:40;;;;;;;28.83;20.00;;;9.60;99.90;;;;;;4994294;28;21045;-75
2023/10/25 09:18:07;;;;;;;27.20;20.17;;;9.60;99.90;;;;;;5004262;28;20033;-75
2023/10/25 09:20:34;;;;;;;30.83;20.05;;;9.60;99.90;;;;;;4993391;28;20034;-76
2023/10/25 09:23:11;;;;;;;30.33;21.17;;;9.70;99.90;;;;;;5004814;28;20045;-74
2023/10/25 09:25:38;;;;;;;28.70;20.50;;;9.80;99.90;;;;;;4998263;28;20053;-75
2023/10/25 09:28:15;;;;;;;24.50;20.05;;;9.80;99.90;;;;;;5003267;28;20053;-75
2023/10/25 09:30:43;;;;;;;26.42;20.65;;;9.90;99.90;;;;;;4986286;28;20137;-74
2023/10/25 09:33:10;;;;;;;22.27;18.50;;;9.90;99.90;;;;;;4994423;28;21079;-75
2023/10/25 09:35:37;;;;;;;24.33;19.98;;;10.00;99.90;;;;;;4989184;28;20057;-75
2023/10/25 09:38:04;;;;;;;30.17;20.48;;;10.10;99.90;;;;;;4999985;28;20034;-75
2023/10/25 09:40:31;;;;;;;25.05;19.88;;;10.00;99.90;;;;;;4993597;28;20042;-75
2023/10/25 09:43:03;;;;;;;26.88;21.05;;;10.00;99.90;;;;;;4999437;28;20049;-74
2023/10/25 09:45:31;;;;;;;26.83;19.23;;;10.00;99.90;;;;;;4991612;28;20100;-74
2023/10/25 09:48:04;;;;;;;25.92;20.65;;;9.90;99.90;;;;;;5002034;28;20140;-75
2023/10/25 09:50:41;;;;;;;25.27;19.58;;;9.90;99.90;;;;;;4989294;28;20136;-74
2023/10/25 09:53:13;;;;;;;22.60;18.88;;;9.90;99.90;;;;;;4999661;28;20672;-75
2023/10/25 09:55:45;;;;;;;40.05;19.48;;;10.00;99.90;;;;;;4991254;28;20049;-75
2023/10/25 09:58:14;;;;;;;25.90;19.30;;;10.00;99.90;;;;;;5002046;28;20045;-74
2023/10/25 10:00:41;;;;;;;24.75;19.00;;;10.00;99.90;;;;;;5014456;28;20808;-74
2023/10/25 10:03:12;;;;;;;21.50;18.92;;;10.00;99.90;;;;;;5027263;28;20044;-75
2023/10/25 10:05:50;;;;;;;24.23;17.25;;;10.10;99.90;;;;;;5022397;28;20042;-74
2023/10/25 10:08:40;;;;;;;27.80;19.27;;;10.40;99.90;;;;;;5000096;28;20045;-74
2023/10/25 10:11:15;;;;;;;22.13;20.02;;;10.50;99.90;;;;;;4993664;28;20049;-75
2023/10/25 10:13:42;;;;;;;23.35;19.17;;;10.60;99.90;;;;;;4999827;28;21562;-74
2023/10/25 10:16:11;;;;;;;25.05;21.00;;;10.60;99.90;;;;;;5000983;28;20050;-75
2023/10/25 10:18:42;;;;;;;25.70;21.25;;;10.50;99.90;;;;;;4995938;28;20054;-75
2023/10/25 10:21:10;;;;;;;22.67;20.38;;;10.40;99.90;;;;;;5004285;28;20041;-75
2023/10/25 10:23:49;;;;;;;26.27;22.60;;;10.40;99.90;;;;;;4997444;28;20681;-75
2023/10/25 10:26:44;;;;;;;26.95;23.15;;;10.40;99.90;;;;;;4977179;28;20511;-75
2023/10/25 10:29:33;;;;;;;19.88;17.98;;;10.40;99.90;;;;;;5010272;28;20139;-75
2023/10/25 10:32:02;;;;;;;24.17;21.55;;;10.40;99.90;;;;;;5012761;28;20073;-75
2023/10/25 10:34:49;;;;;;;24.80;22.27;;;10.50;99.90;;;;;;4988622;28;20034;-74
2023/10/25 10:37:20;;;;;;;22.85;20.75;;;10.50;99.90;;;;;;4998480;28;20054;-75
2023/10/25 10:39:59;;;;;;;24.83;21.75;;;10.50;99.90;;;;;;4994919;28;20127;-75
2023/10/25 10:42:31;;;;;;;24.77;22.20;;;10.40;99.90;;;;;;4991206;28;20443;-75
2023/10/25 10:45:07;;;;;;;23.98;21.67;;;10.40;99.90;;;;;;5008656;28;20089;-74
2023/10/25 10:47:46;;;;;;;22.25;20.35;;;10.50;99.90;;;;;;4992580;28;20621;-75
2023/10/25 10:50:16;;;;;;;24.50;22.10;;;10.50;99.90;;;;;;4996724;28;20404;-75
2023/10/25 10:52:45;;;;;;;23.35;21.30;;;10.50;99.90;;;;;;4997558;28;20775;-75
2023/10/25 10:55:23;;;;;;;23.45;21.35;;;10.50;99.90;;;;;;4998518;28;20049;-76
2023/10/25 10:57:50;;;;;;;22.60;20.50;;;10.40;99.90;;;;;;4995881;28;20060;-75
2023/10/25 11:00:34;;;;;;;23.73;20.05;;;10.20;99.90;;;;;;4989322;28;20124;-75
2023/10/25 11:03:02;;;;;;;21.23;19.02;;;10.30;99.90;;;;;;5001635;28;20048;-74
2023/10/25 11:05:36;;;;;;;23.10;20.33;;;10.30;99.90;;;;;;4992039;28;20053;-75
2023/10/25 11:08:09;;;;;;;22.17;20.08;;;10.20;99.90;;;;;;4990401;28;20068;-75
2023/10/25 11:10:37;;;;;;;20.88;19.10;;;10.30;99.90;;;;;;4993381;28;20045;-76
2023/10/25 11:13:10;;;;;;;22.38;20.00;;;10.20;99.90;;;;;;4997665;28;20041;-75
2023/10/25 11:15:38;;;;;;;23.13;20.95;;;10.30;99.90;;;;;;4994733;28;20125;-75
2023/10/25 11:18:08;;;;;;;20.05;18.05;;;10.30;99.90;;;;;;4998492;28;20479;-75
2023/10/25 11:20:35;;;;;;;21.95;19.63;;;10.30;99.90;;;;;;4984377;28;20038;-75
2023/10/25 11:23:05;;;;;;;20.70;18.67;;;10.40;99.90;;;;;;4994585;28;20045;-75
2023/10/25 11:25:32;;;;;;;22.05;19.80;;;10.50;99.90;;;;;;4996160;28;20042;-75
2023/10/25 11:27:59;;;;;;;21.73;19.83;;;10.40;99.90;;;;;;4993912;28;20037;-75
2023/10/25 11:30:26;;;;;;;22.25;20.35;;;10.40;99.90;;;;;;4993973;28;20056;-75
2023/10/25 11:32:54;;;;;;;22.27;19.83;;;10.50;99.90;;;;;;4994564;28;20050;-75
2023/10/25 11:35:30;;;;;;;22.95;20.80;;;10.60;99.90;;;;;;4994137;28;20842;-75
2023/10/25 11:37:58;;;;;;;21.77;20.05;;;10.60;99.90;;;;;;5001397;28;20042;-76
2023/10/25 11:40:46;;;;;;;22.85;20.92;;;10.70;99.90;;;;;;4999327;28;20062;-75
2023/10/25 11:43:14;;;;;;;21.83;20.00;;;10.90;99.90;;;;;;4994556;28;20622;-76
2023/10/25 11:45:41;;;;;;;23.08;21.30;;;11.00;99.90;;;;;;4990768;28;20551;-76
2023/10/25 11:48:09;;;;;;;22.40;20.60;;;11.00;99.90;;;;;;4998269;28;20046;-76
2023/10/25 11:50:37;;;;;;;23.63;21.77;;;10.90;99.90;;;;;;4993537;28;20037;-75
2023/10/25 11:53:04;;;;;;;23.33;21.30;;;11.10;99.90;;;;;;4997263;28;20471;-76
2023/10/25 11:55:31;;;;;;;22.30;20.55;;;11.10;99.90;;;;;;4996523;28;20061;-76
2023/10/25 11:57:59;;;;;;;22.85;21.05;;;11.10;99.90;;;;;;4998202;28;20053;-76
2023/10/25 12:00:26;;;;;;;23.13;21.13;;;11.10;99.90;;;;;;4999234;28;20034;-76
2023/10/25 12:02:53;;;;;;;23.45;21.25;;;11.10;99.90;;;;;;4993806;28;20099;-76
2023/10/25 12:05:21;;;;;;;24.38;22.17;;;11.20;99.90;;;;;;4999475;28;20120;-76
2023/10/25 12:07:49;;;;;;;23.63;21.63;;;11.20;99.90;;;;;;4996375;28;20053;-75
2023/10/25 12:10:16;;;;;;;26.42;23.83;;;11.20;99.90;;;;;;4999289;28;20487;-75
2023/10/25 12:12:43;;;;;;;22.70;20.55;;;11.10;99.90;;;;;;4990274;28;20057;-75
2023/10/25 12:15:10;;;;;;;23.45;21.35;;;11.00;99.90;;;;;;5003748;28;20051;-75
2023/10/25 12:17:37;;;;;;;23.45;21.35;;;11.00;99.90;;;;;;5003825;28;20057;-76
2023/10/25 12:20:05;;;;;;;24.15;21.88;;;11.00;99.90;;;;;;5002922;28;20049;-76
2023/10/25 12:22:52;;;;;;;25.10;22.75;;;11.00;99.90;;;;;;5001007;28;20041;-75
2023/10/25 12:25:19;;;;;;;23.00;21.13;;;10.90;99.90;;;;;;4995846;28;20038;-76
2023/10/25 12:27:46;;;;;;;25.17;22.50;;;11.00;99.90;;;;;;4998721;28;20046;-77
2023/10/25 12:30:13;;;;;;;23.50;21.60;;;11.00;99.90;;;;;;5003285;28;21375;-77
2023/10/25 12:32:40;;;;;;;22.52;20.70;;;11.00;99.90;;;;;;5002016;28;20054;-77
2023/10/25 12:35:07;;;;;;;21.77;19.75;;;11.10;99.90;;;;;;4998391;28;20057;-77
2023/10/25 12:37:34;;;;;;;22.92;20.67;;;11.10;99.90;;;;;;4996356;28;20057;-76
2023/10/25 12:40:01;;;;;;;23.13;20.90;;;11.10;99.90;;;;;;4997239;28;22774;-77
2023/10/25 12:42:28;;;;;;;22.63;20.30;;;11.20;99.90;;;;;;5003395;28;20527;-77